Flight Track Log - Related Links

Times and Time Zones

All times are in EDT time to prevent confusion due to time zone crossing. See the ASQ5958 flight status page for this flight to view local times or setup timezone preferences in your user account.

Time Position Orientation Groundspeed Altitude Reporting Facility
EDT Latitude Longitude Course Direction KTS MPH feet Rate Location/Type
Sun 06:33:52 PM 41.9000 -87.9000 169° South 220 253 4,000  Level Chicago TRACON
Sun 06:34:15 PM 41.8708 -87.8925 169° South 235 270 4,900 2,700 Climbing Chicago Center
Sun 06:34:52 PM 41.8333 -87.8667 153° Southeast 273 314 6,700 2,323 Climbing Chicago TRACON
Sun 06:37:21 PM 41.6531 -87.7353 151° Southeast 320 368 12,100 1,848 Climbing Chicago Center
Sun 06:38:23 PM 41.5594 -87.6683 152° Southeast 374 430 13,200 1,452 Climbing Chicago Center
Sun 06:39:00 PM 40.8488 -87.4288 169° South  Level FlightAware Approximate
Sun 06:39:25 PM 41.4603 -87.5986 152° Southeast 393 452 15,100  Level Chicago Center
Sun 06:40:27 PM 41.3531 -87.5611 165° South 404 465 17,000 1,839 Climbing Chicago Center
Sun 06:41:29 PM 41.2178 -87.5372 172° South 407 468 18,900 1,742 Climbing Chicago Center
Sun 06:42:31 PM 41.1028 -87.5069 169° South 419 482 20,600 1,584 Climbing Chicago Center
Sun 06:43:34 PM 40.9875 -87.4761 169° South 423 487 22,200 1,488 Climbing Chicago Center
Sun 06:44:36 PM 40.8708 -87.4436 168° South 429 494 23,700 1,452 Climbing Chicago Center
Sun 06:45:38 PM 40.7508 -87.4139 169° South 437 503 25,200 1,452 Climbing Chicago Center
Sun 06:46:40 PM 40.6317 -87.3828 169° South 437 503 26,700 1,500 Climbing Chicago Center
Sun 06:47:42 PM 40.4872 -87.3447 169° South 441 507 28,300 1,306 Climbing Chicago Center
Sun 06:48:44 PM 40.3917 -87.2631 147° Southeast 469 540 29,400 1,113 Climbing Chicago Center
Sun 06:49:46 PM 40.3156 -87.1286 127° Southeast 463 533 30,600 774 Climbing Chicago Center
Sun 06:50:48 PM 40.2194 -86.9608 127° Southeast 479 551 31,000 194 Climbing Chicago Center
Sun 06:51:50 PM 40.1344 -86.8136 127° Southeast 502 578 31,000  Level Chicago Center
Sun 06:52:40 PM 40.0628 -86.6911 127° Southeast 519 597 31,000  Level Indianapolis Center
Sun 06:53:42 PM 39.9758 -86.5400 127° Southeast 522 601 31,000  Level Indianapolis Center
Sun 06:54:44 PM 39.8886 -86.3878 127° Southeast 522 601 31,000  Level Indianapolis Center
Sun 06:55:46 PM 39.7989 -86.2333 127° Southeast 521 600 31,000  Level Indianapolis Center
Sun 06:56:48 PM 39.7092 -86.0786 127° Southeast 519 597 31,000  Level Indianapolis Center
Sun 06:57:50 PM 39.6208 -85.9275 127° Southeast 522 601 31,000  Level Indianapolis Center
Sun 06:58:53 PM 39.5147 -85.7478 127° Southeast 524 603 31,000  Level Indianapolis Center
Sun 06:59:55 PM 39.4269 -85.5986 127° Southeast 522 601 31,000  Level Indianapolis Center
Sun 07:00:57 PM 39.3356 -85.4553 129° Southeast 519 597 31,000  Level Indianapolis Center
Sun 07:01:59 PM 39.2119 -85.3803 155° Southeast 491 565 31,000  Level Indianapolis Center
Sun 07:03:01 PM 39.0833 -85.3250 162° South 486 559 31,000  Level Indianapolis Center
Sun 07:04:03 PM 38.9550 -85.2714 162° South 486 559 31,000  Level Indianapolis Center
Sun 07:05:05 PM 38.8025 -85.2056 161° South 485 558 31,000  Level Indianapolis Center
Sun 07:06:07 PM 38.6750 -85.1517 162° South 482 555 31,000  Level Indianapolis Center
Sun 07:07:09 PM 38.5394 -85.0964 162° South 479 551 31,000  Level Indianapolis Center
Sun 07:08:11 PM 38.4114 -85.0425 162° South 483 556 31,000  Level Indianapolis Center
Sun 07:09:13 PM 38.2842 -84.9878 161° South 483 556 31,000 -387 Level Indianapolis Center
Sun 07:10:15 PM 38.1553 -84.9367 163° South 484 557 30,200 -871 Descending Indianapolis Center
Sun 07:11:17 PM 38.0283 -84.8756 159° South 486 559 29,200 -1,065 Descending Indianapolis Center
Sun 07:12:19 PM 37.8825 -84.7769 152° Southeast 506 582 28,000 -1,024 Descending Indianapolis Center
Sun 07:13:20 PM 37.7561 -84.6975 154° Southeast 509 586 27,100 -488 Descending Indianapolis Center
Sun 07:14:22 PM 37.6275 -84.6267 156° South 505 581 27,000 -532 Descending Indianapolis Center
Sun 07:15:24 PM 37.4967 -84.5778 163° South 491 565 26,000 -1,355 Descending Indianapolis Center
Sun 07:16:26 PM 37.3719 -84.5328 164° South 471 542 24,200 -1,290 Descending Indianapolis Center
Sun 07:18:30 PM 37.1064 -84.4400 164° South 457 526 22,000 -710 Descending Indianapolis Center
Sun 07:19:32 PM 36.9878 -84.3986 164° South 447 514 22,000 -244 Level Indianapolis Center
Sun 07:20:33 PM 36.8681 -84.3569 164° South 446 513 21,500 -1,366 Descending Indianapolis Center
Sun 07:21:35 PM 36.7492 -84.3161 165° South 444 511 19,200 -2,177 Descending Indianapolis Center
Sun 07:22:37 PM 36.6342 -84.2747 164° South 435 501 17,000 -2,468 Descending Indianapolis Center
Sun 07:23:39 PM 36.5050 -84.2303 165° South 416 479 14,100 -2,419 Descending Indianapolis Center
Sun 07:24:41 PM 36.4111 -84.1983 165° South 395 455 12,000 -2,044 Descending Indianapolis Center
Sun 07:25:10 PM 36.3522 -84.1806 166° South 393 452 11,000 -876 Descending Atlanta Center
Sun 07:26:10 PM 36.2689 -84.1519 165° South 354 407 10,700 -1,100 Descending Atlanta Center
Sun 07:27:10 PM 36.1897 -84.1261 165° South 315 362 8,800 -1,850 Descending Atlanta Center
Sun 07:28:10 PM 36.1125 -84.1003 165° South 292 336 7,000 -1,550 Descending Atlanta Center
Sun 07:29:10 PM 36.0436 -84.0772 165° South 277 319 5,700 -1,250 Descending Atlanta Center
Sun 07:30:10 PM 35.9811 -84.0489 160° South 256 295 4,500 -900 Descending Atlanta Center
Sun 07:31:10 PM 35.9353 -84.0081 144° Southeast 240 276 3,900 -900 Descending Atlanta Center
Sun 07:32:10 PM 35.8831 -83.9542 140° Southeast 233 268 2,700 -1,050 Descending Atlanta Center
Sun 07:33:10 PM 35.8433 -83.9492 174° South 208 239 1,800 -900 Descending Atlanta Center

Login

Don't have an account? Register now (free) for customized features, flight alerts, and more!